Bulktec — VRFJ3 — position and weather

sailwx.info

Track history (hours):
 
Tides and Currents Weather Stations Pressure Air Temp Water Temp Dewpoint Dewpoint Depression Visibility Wind Speed Wind Dir Waves Ship Positions

Bulktec

Last reported at 2017-Mar-20 14:32 UTC. Time now 2017-Mar-29 01:35 UTC.
Position N 24°14' E 118°16'.
Warning: this ship's position is 8 days out of date.

Length 179 m; draft 6.6 m.

Type: Cargo ship. MMSI: 3699076.

Date/timePositionNaut miles runAvg speedWind from/ knotsBaromVisibWave heightAir tempDewpointWater temp
2017-Mar-20 14:32N 24°14' E 118°16'1211.8
2017-Mar-20 13:33N 24°23' E 118°07'9 9.3
2017-Mar-20 12:33N 24°32' E 118°05'1 0.6
2017-Mar-20 11:26N 24°33' E 118°05'0 0.1
2017-Mar-20 10:26N 24°33' E 118°05'0 0.0
2017-Mar-20 09:26N 24°33' E 118°05'0 0.1
2017-Mar-20 08:32N 24°33' E 118°05'0 0.0
2017-Mar-20 07:20N 24°33' E 118°05'0 0.0
2017-Mar-20 05:20N 24°33' E 118°05'0 0.0
2017-Mar-20 03:32N 24°33' E 118°05'0 0.0
2017-Mar-20 02:30N 24°33' E 118°05'0 0.0
2017-Mar-20 01:32N 24°33' E 118°05'0 0.0
2017-Mar-20 00:26N 24°33' E 118°05'0 0.1
2017-Mar-19 23:32N 24°33' E 118°05'0 0.1
2017-Mar-19 22:32N 24°33' E 118°05'0 0.0
2017-Mar-19 21:32N 24°33' E 118°05'0 0.0
2017-Mar-19 20:26N 24°33' E 118°05'0 0.1
2017-Mar-19 19:32N 24°33' E 118°05'0 0.0
2017-Mar-19 18:32N 24°33' E 118°05'0 0.0
2017-Mar-19 17:20N 24°33' E 118°05'0 0.0
2017-Mar-19 16:32N 24°33' E 118°05'0 0.0
2017-Mar-19 15:08N 24°33' E 118°05'0 0.0
2017-Mar-19 14:08N 24°33' E 118°05'0 0.1
2017-Mar-19 13:32N 24°33' E 118°05'0 0.0
2017-Mar-19 09:32N 24°33' E 118°05'0 0.0
2017-Mar-19 08:32N 24°33' E 118°05'0 0.0
2017-Mar-19 07:14N 24°33' E 118°05'0 0.0
2017-Mar-19 06:26N 24°33' E 118°05'0 0.0
2017-Mar-19 05:26N 24°33' E 118°05'0 0.0
2017-Mar-19 04:32N 24°33' E 118°05'0 0.0
2017-Mar-19 03:32N 24°33' E 118°05'0 0.0
2017-Mar-19 02:14N 24°33' E 118°05'0 0.0
2017-Mar-19 01:32N 24°33' E 118°05'0 0.0
2017-Mar-19 00:26N 24°33' E 118°05'0 0.0
2017-Mar-18 23:32N 24°33' E 118°05'0 0.0
2017-Mar-18 22:08N 24°33' E 118°05'0 0.0
2017-Mar-18 21:32N 24°33' E 118°05'0 0.0
2017-Mar-18 20:32N 24°33' E 118°05'0 0.1
2017-Mar-18 19:32N 24°33' E 118°05'0 0.1
2017-Mar-18 18:32N 24°33' E 118°05'0 0.0
2017-Mar-18 16:32N 24°33' E 118°05'0 0.0
2017-Mar-18 15:08N 24°33' E 118°05'0 0.0
2017-Mar-18 14:20N 24°33' E 118°05'0 0.1
2017-Mar-18 13:32N 24°33' E 118°05'5 5.0
2017-Mar-18 12:31N 24°28' E 118°03'8 8.5
2017-Mar-18 11:33N 24°22' E 118°09'13 6.1
2017-Mar-18 09:25N 24°10' E 118°16'  
2017-Mar-11 23:15N 01°14' E 104°02'4 5.7
2017-Mar-11 22:33N 01°17' E 103°59'1 1.0
2017-Mar-11 21:33N 01°17' E 103°58'0 0.1
2017-Mar-11 20:30N 01°17' E 103°58'0 0.0
2017-Mar-11 19:11N 01°17' E 103°58'0 0.0
2017-Mar-11 18:33N 01°17' E 103°58'0 0.0
2017-Mar-11 17:10N 01°17' E 103°58'0 0.0
2017-Mar-11 16:33N 01°17' E 103°58'0 0.0
2017-Mar-11 15:33N 01°17' E 103°58'1 0.5
2017-Mar-11 14:32N 01°17' E 103°58'2 2.2
2017-Mar-11 13:33N 01°15' E 103°57'5 5.5
2017-Mar-11 12:33N 01°12' E 103°53'8 7.6
2017-Mar-11 11:33N 01°08' E 103°46'9 9.3
2017-Mar-11 10:33N 01°03' E 103°38'9 8.9
2017-Mar-11 09:33N 01°08' E 103°30'  
Track history (hours):
 
Tides and Currents Weather Stations Pressure Air Temp Water Temp Dewpoint Dewpoint Depression Visibility Wind Speed Wind Dir Waves Ship Positions

Bulktec

Last reported at 2017-Mar-20 14:32 UTC. Time now 2017-Mar-29 01:35 UTC.
Position N 24°14' E 118°16'.
Warning: this ship's position is 8 days out of date.

Length 179 m; draft 6.6 m.

Type: Cargo ship. MMSI: 3699076.

Date/timePositionNaut miles runAvg speedWind from/ knotsBaromVisibWave heightAir tempDewpointWater temp
2017-Mar-20 14:32N 24°14' E 118°16'1211.8
2017-Mar-20 13:33N 24°23' E 118°07'9 9.3
2017-Mar-20 12:33N 24°32' E 118°05'1 0.6
2017-Mar-20 11:26N 24°33' E 118°05'0 0.1
2017-Mar-20 10:26N 24°33' E 118°05'0 0.0
2017-Mar-20 09:26N 24°33' E 118°05'0 0.1
2017-Mar-20 08:32N 24°33' E 118°05'0 0.0
2017-Mar-20 07:20N 24°33' E 118°05'0 0.0
2017-Mar-20 05:20N 24°33' E 118°05'0 0.0
2017-Mar-20 03:32N 24°33' E 118°05'0 0.0
2017-Mar-20 02:30N 24°33' E 118°05'0 0.0
2017-Mar-20 01:32N 24°33' E 118°05'0 0.0
2017-Mar-20 00:26N 24°33' E 118°05'0 0.1
2017-Mar-19 23:32N 24°33' E 118°05'0 0.1
2017-Mar-19 22:32N 24°33' E 118°05'0 0.0
2017-Mar-19 21:32N 24°33' E 118°05'0 0.0
2017-Mar-19 20:26N 24°33' E 118°05'0 0.1
2017-Mar-19 19:32N 24°33' E 118°05'0 0.0
2017-Mar-19 18:32N 24°33' E 118°05'0 0.0
2017-Mar-19 17:20N 24°33' E 118°05'0 0.0
2017-Mar-19 16:32N 24°33' E 118°05'0 0.0
2017-Mar-19 15:08N 24°33' E 118°05'0 0.0
2017-Mar-19 14:08N 24°33' E 118°05'0 0.1
2017-Mar-19 13:32N 24°33' E 118°05'0 0.0
2017-Mar-19 09:32N 24°33' E 118°05'0 0.0
2017-Mar-19 08:32N 24°33' E 118°05'0 0.0
2017-Mar-19 07:14N 24°33' E 118°05'0 0.0
2017-Mar-19 06:26N 24°33' E 118°05'0 0.0
2017-Mar-19 05:26N 24°33' E 118°05'0 0.0
2017-Mar-19 04:32N 24°33' E 118°05'0 0.0
2017-Mar-19 03:32N 24°33' E 118°05'0 0.0
2017-Mar-19 02:14N 24°33' E 118°05'0 0.0
2017-Mar-19 01:32N 24°33' E 118°05'0 0.0
2017-Mar-19 00:26N 24°33' E 118°05'0 0.0
2017-Mar-18 23:32N 24°33' E 118°05'0 0.0
2017-Mar-18 22:08N 24°33' E 118°05'0 0.0
2017-Mar-18 21:32N 24°33' E 118°05'0 0.0
2017-Mar-18 20:32N 24°33' E 118°05'0 0.1
2017-Mar-18 19:32N 24°33' E 118°05'0 0.1
2017-Mar-18 18:32N 24°33' E 118°05'0 0.0
2017-Mar-18 16:32N 24°33' E 118°05'0 0.0
2017-Mar-18 15:08N 24°33' E 118°05'0 0.0
2017-Mar-18 14:20N 24°33' E 118°05'0 0.1
2017-Mar-18 13:32N 24°33' E 118°05'5 5.0
2017-Mar-18 12:31N 24°28' E 118°03'8 8.5
2017-Mar-18 11:33N 24°22' E 118°09'13 6.1
2017-Mar-18 09:25N 24°10' E 118°16'  
2017-Mar-11 23:15N 01°14' E 104°02'4 5.7
2017-Mar-11 22:33N 01°17' E 103°59'1 1.0
2017-Mar-11 21:33N 01°17' E 103°58'0 0.1
2017-Mar-11 20:30N 01°17' E 103°58'0 0.0
2017-Mar-11 19:11N 01°17' E 103°58'0 0.0
2017-Mar-11 18:33N 01°17' E 103°58'0 0.0
2017-Mar-11 17:10N 01°17' E 103°58'0 0.0
2017-Mar-11 16:33N 01°17' E 103°58'0 0.0
2017-Mar-11 15:33N 01°17' E 103°58'1 0.5
2017-Mar-11 14:32N 01°17' E 103°58'2 2.2
2017-Mar-11 13:33N 01°15' E 103°57'5 5.5
2017-Mar-11 12:33N 01°12' E 103°53'8 7.6
2017-Mar-11 11:33N 01°08' E 103°46'9 9.3
2017-Mar-11 10:33N 01°03' E 103°38'9 8.9
2017-Mar-11 09:33N 01°08' E 103°30'  

Dump ship's entire track history